sensor_id;sensor_type;location;lat;lon;timestamp;pressure;altitude;pressure_sealevel;temperature;humidity
9091;BME280;4581;42.416;25.598;2022-11-20T00:00:16;97966.75;;;16.63;100.00
9091;BME280;4581;42.416;25.598;2022-11-20T00:02:43;97961.78;;;16.60;100.00
9091;BME280;4581;42.416;25.598;2022-11-20T00:05:10;97962.00;;;16.58;100.00
9091;BME280;4581;42.416;25.598;2022-11-20T00:07:36;97965.63;;;16.52;100.00
9091;BME280;4581;42.416;25.598;2022-11-20T00:10:03;97981.94;;;16.52;100.00
9091;BME280;4581;42.416;25.598;2022-11-20T00:12:30;97978.84;;;16.49;100.00
9091;BME280;4581;42.416;25.598;2022-11-20T00:14:57;97976.78;;;16.44;100.00
9091;BME280;4581;42.416;25.598;2022-11-20T00:17:24;97980.00;;;16.59;100.00
9091;BME280;4581;42.416;25.598;2022-11-20T00:19:50;97968.72;;;16.56;100.00
9091;BME280;4581;42.416;25.598;2022-11-20T00:22:17;97970.81;;;16.54;100.00
9091;BME280;4581;42.416;25.598;2022-11-20T00:24:43;97971.06;;;16.52;100.00
9091;BME280;4581;42.416;25.598;2022-11-20T00:27:10;97964.31;;;16.55;100.00
9091;BME280;4581;42.416;25.598;2022-11-20T00:29:37;97974.19;;;16.49;100.00
9091;BME280;4581;42.416;25.598;2022-11-20T00:32:03;97981.63;;;16.42;100.00
9091;BME280;4581;42.416;25.598;2022-11-20T00:34:30;97986.22;;;16.42;100.00
9091;BME280;4581;42.416;25.598;2022-11-20T00:36:56;97974.66;;;16.46;100.00
9091;BME280;4581;42.416;25.598;2022-11-20T00:39:23;97974.44;;;16.48;100.00
9091;BME280;4581;42.416;25.598;2022-11-20T00:41:50;97972.13;;;16.69;100.00
9091;BME280;4581;42.416;25.598;2022-11-20T00:44:16;97970.91;;;16.83;100.00
9091;BME280;4581;42.416;25.598;2022-11-20T00:46:43;97978.16;;;16.90;100.00
9091;BME280;4581;42.416;25.598;2022-11-20T00:49:10;97979.72;;;16.97;100.00
9091;BME280;4581;42.416;25.598;2022-11-20T00:51:36;97981.84;;;16.95;100.00
9091;BME280;4581;42.416;25.598;2022-11-20T00:54:03;97964.22;;;16.98;100.00
9091;BME280;4581;42.416;25.598;2022-11-20T00:56:30;97969.66;;;16.98;100.00
9091;BME280;4581;42.416;25.598;2022-11-20T00:58:59;97974.47;;;16.84;100.00
9091;BME280;4581;42.416;25.598;2022-11-20T01:01:26;97976.56;;;16.82;100.00
9091;BME280;4581;42.416;25.598;2022-11-20T01:03:58;97957.81;;;16.74;100.00
9091;BME280;4581;42.416;25.598;2022-11-20T01:06:30;97957.91;;;16.67;100.00
9091;BME280;4581;42.416;25.598;2022-11-20T01:08:59;97945.19;;;16.79;100.00
9091;BME280;4581;42.416;25.598;2022-11-20T01:11:35;97955.31;;;16.91;100.00
9091;BME280;4581;42.416;25.598;2022-11-20T01:14:05;97956.34;;;16.90;100.00
9091;BME280;4581;42.416;25.598;2022-11-20T01:16:35;97949.13;;;16.83;100.00
9091;BME280;4581;42.416;25.598;2022-11-20T01:19:05;97949.72;;;16.85;100.00
9091;BME280;4581;42.416;25.598;2022-11-20T01:21:34;97949.59;;;16.80;100.00
9091;BME280;4581;42.416;25.598;2022-11-20T01:24:02;97947.78;;;16.74;100.00
9091;BME280;4581;42.416;25.598;2022-11-20T01:26:32;97949.97;;;16.84;100.00
9091;BME280;4581;42.416;25.598;2022-11-20T01:29:00;97932.78;;;16.83;100.00
9091;BME280;4581;42.416;25.598;2022-11-20T01:31:35;97942.63;;;16.84;100.00
9091;BME280;4581;42.416;25.598;2022-11-20T01:34:08;97937.50;;;16.76;100.00
9091;BME280;4581;42.416;25.598;2022-11-20T01:36:36;97945.66;;;16.76;100.00
9091;BME280;4581;42.416;25.598;2022-11-20T01:39:06;97948.44;;;16.70;100.00
9091;BME280;4581;42.416;25.598;2022-11-20T01:41:34;97946.19;;;16.67;100.00
9091;BME280;4581;42.416;25.598;2022-11-20T01:44:22;97949.06;;;16.72;100.00
9091;BME280;4581;42.416;25.598;2022-11-20T01:49:27;97934.84;;;16.70;100.00
9091;BME280;4581;42.416;25.598;2022-11-20T01:52:04;97927.66;;;16.57;100.00
9091;BME280;4581;42.416;25.598;2022-11-20T01:54:37;97919.50;;;16.57;100.00
9091;BME280;4581;42.416;25.598;2022-11-20T01:57:06;97923.81;;;16.47;100.00
9091;BME280;4581;42.416;25.598;2022-11-20T01:59:40;97897.06;;;16.44;100.00
9091;BME280;4581;42.416;25.598;2022-11-20T02:02:09;97909.13;;;16.48;100.00
9091;BME280;4581;42.416;25.598;2022-11-20T02:04:36;97896.22;;;16.43;100.00
9091;BME280;4581;42.416;25.598;2022-11-20T02:07:04;97907.69;;;16.45;100.00
9091;BME280;4581;42.416;25.598;2022-11-20T02:09:31;97887.06;;;16.37;100.00
9091;BME280;4581;42.416;25.598;2022-11-20T02:11:58;97902.56;;;16.37;100.00
9091;BME280;4581;42.416;25.598;2022-11-20T02:14:26;97891.47;;;16.38;100.00
9091;BME280;4581;42.416;25.598;2022-11-20T02:16:54;97882.00;;;16.41;100.00
9091;BME280;4581;42.416;25.598;2022-11-20T02:19:28;97876.44;;;16.36;100.00
9091;BME280;4581;42.416;25.598;2022-11-20T02:22:04;97871.88;;;16.30;100.00
9091;BME280;4581;42.416;25.598;2022-11-20T02:24:32;97860.41;;;16.28;100.00
9091;BME280;4581;42.416;25.598;2022-11-20T02:27:09;97871.81;;;16.36;100.00
9091;BME280;4581;42.416;25.598;2022-11-20T02:29:46;97893.06;;;16.28;100.00
9091;BME280;4581;42.416;25.598;2022-11-20T02:32:19;97895.16;;;16.26;100.00
9091;BME280;4581;42.416;25.598;2022-11-20T02:34:47;97898.72;;;16.26;100.00
9091;BME280;4581;42.416;25.598;2022-11-20T02:37:14;97895.34;;;16.13;100.00
9091;BME280;4581;42.416;25.598;2022-11-20T02:39:41;97898.72;;;16.08;100.00
9091;BME280;4581;42.416;25.598;2022-11-20T02:42:08;97901.16;;;16.16;100.00
9091;BME280;4581;42.416;25.598;2022-11-20T02:44:35;97901.38;;;16.15;100.00
9091;BME280;4581;42.416;25.598;2022-11-20T02:47:01;97892.09;;;16.04;100.00
9091;BME280;4581;42.416;25.598;2022-11-20T02:49:28;97896.69;;;16.04;100.00
9091;BME280;4581;42.416;25.598;2022-11-20T02:51:54;97906.94;;;16.02;100.00
9091;BME280;4581;42.416;25.598;2022-11-20T02:54:21;97913.75;;;15.93;100.00
9091;BME280;4581;42.416;25.598;2022-11-20T02:56:48;97908.72;;;15.89;100.00
9091;BME280;4581;42.416;25.598;2022-11-20T02:59:14;97899.53;;;15.90;100.00
9091;BME280;4581;42.416;25.598;2022-11-20T03:01:41;97883.50;;;15.82;100.00
9091;BME280;4581;42.416;25.598;2022-11-20T03:04:08;97882.69;;;15.82;100.00
9091;BME280;4581;42.416;25.598;2022-11-20T03:06:34;97889.50;;;15.91;100.00
9091;BME280;4581;42.416;25.598;2022-11-20T03:09:01;97889.66;;;15.96;100.00
9091;BME280;4581;42.416;25.598;2022-11-20T03:11:28;97891.16;;;16.10;100.00
9091;BME280;4581;42.416;25.598;2022-11-20T03:13:55;97877.03;;;16.20;100.00
9091;BME280;4581;42.416;25.598;2022-11-20T03:16:22;97868.13;;;16.13;100.00
9091;BME280;4581;42.416;25.598;2022-11-20T03:18:51;97872.75;;;16.12;100.00
9091;BME280;4581;42.416;25.598;2022-11-20T03:21:18;97882.78;;;16.12;100.00
9091;BME280;4581;42.416;25.598;2022-11-20T03:23:45;97880.38;;;16.04;100.00
9091;BME280;4581;42.416;25.598;2022-11-20T03:26:14;97874.63;;;16.12;100.00
9091;BME280;4581;42.416;25.598;2022-11-20T03:28:47;97874.25;;;16.08;100.00
9091;BME280;4581;42.416;25.598;2022-11-20T03:31:16;97877.19;;;16.07;100.00
9091;BME280;4581;42.416;25.598;2022-11-20T03:33:43;97863.44;;;16.02;100.00
9091;BME280;4581;42.416;25.598;2022-11-20T03:36:12;97874.31;;;16.02;100.00
9091;BME280;4581;42.416;25.598;2022-11-20T03:38:39;97876.59;;;16.05;100.00
9091;BME280;4581;42.416;25.598;2022-11-20T03:41:12;97875.97;;;16.03;100.00
9091;BME280;4581;42.416;25.598;2022-11-20T03:43:39;97867.66;;;15.98;100.00
9091;BME280;4581;42.416;25.598;2022-11-20T03:46:06;97868.94;;;15.95;100.00
9091;BME280;4581;42.416;25.598;2022-11-20T03:48:32;97868.75;;;15.97;100.00
9091;BME280;4581;42.416;25.598;2022-11-20T03:51:20;97874.25;;;16.08;100.00
9091;BME280;4581;42.416;25.598;2022-11-20T03:53:49;97868.56;;;16.10;100.00
9091;BME280;4581;42.416;25.598;2022-11-20T03:56:17;97873.41;;;16.08;100.00
9091;BME280;4581;42.416;25.598;2022-11-20T03:58:44;97861.03;;;16.12;100.00
9091;BME280;4581;42.416;25.598;2022-11-20T04:01:22;97873.47;;;16.01;100.00
9091;BME280;4581;42.416;25.598;2022-11-20T04:03:51;97867.91;;;15.96;100.00
9091;BME280;4581;42.416;25.598;2022-11-20T04:06:21;97882.94;;;15.99;100.00
9091;BME280;4581;42.416;25.598;2022-11-20T04:08:48;97878.31;;;15.99;100.00
9091;BME280;4581;42.416;25.598;2022-11-20T04:11:27;97869.50;;;16.04;100.00
9091;BME280;4581;42.416;25.598;2022-11-20T04:13:56;97866.78;;;16.04;100.00
9091;BME280;4581;42.416;25.598;2022-11-20T04:16:25;97873.88;;;16.23;100.00
9091;BME280;4581;42.416;25.598;2022-11-20T04:18:53;97882.19;;;16.28;100.00
9091;BME280;4581;42.416;25.598;2022-11-20T04:21:19;97884.06;;;16.27;100.00
9091;BME280;4581;42.416;25.598;2022-11-20T04:23:46;97879.59;;;16.33;100.00
9091;BME280;4581;42.416;25.598;2022-11-20T04:26:13;97885.22;;;16.20;100.00
9091;BME280;4581;42.416;25.598;2022-11-20T04:28:39;97880.06;;;16.12;100.00
9091;BME280;4581;42.416;25.598;2022-11-20T04:31:14;97876.13;;;16.08;100.00
9091;BME280;4581;42.416;25.598;2022-11-20T04:33:41;97884.75;;;16.05;100.00
9091;BME280;4581;42.416;25.598;2022-11-20T04:36:19;97893.50;;;16.07;100.00
9091;BME280;4581;42.416;25.598;2022-11-20T04:38:50;97903.69;;;15.93;100.00
9091;BME280;4581;42.416;25.598;2022-11-20T04:41:27;97897.88;;;15.89;100.00
9091;BME280;4581;42.416;25.598;2022-11-20T04:43:57;97910.13;;;15.99;100.00
9091;BME280;4581;42.416;25.598;2022-11-20T04:46:26;97908.91;;;15.95;100.00
9091;BME280;4581;42.416;25.598;2022-11-20T04:48:54;97898.84;;;16.13;100.00
9091;BME280;4581;42.416;25.598;2022-11-20T04:51:21;97907.44;;;16.17;100.00
9091;BME280;4581;42.416;25.598;2022-11-20T04:53:47;97900.78;;;16.13;100.00
9091;BME280;4581;42.416;25.598;2022-11-20T04:56:15;97910.19;;;16.10;100.00
9091;BME280;4581;42.416;25.598;2022-11-20T04:58:42;97903.34;;;16.08;100.00
9091;BME280;4581;42.416;25.598;2022-11-20T05:01:13;97902.56;;;16.01;100.00
9091;BME280;4581;42.416;25.598;2022-11-20T05:03:41;97893.81;;;15.99;100.00
9091;BME280;4581;42.416;25.598;2022-11-20T05:06:11;97897.81;;;15.96;100.00
9091;BME280;4581;42.416;25.598;2022-11-20T05:08:38;97904.50;;;15.93;100.00
9091;BME280;4581;42.416;25.598;2022-11-20T05:11:17;97907.69;;;15.90;100.00
9091;BME280;4581;42.416;25.598;2022-11-20T05:13:44;97899.69;;;15.96;100.00
9091;BME280;4581;42.416;25.598;2022-11-20T05:16:16;97908.91;;;15.95;100.00
9091;BME280;4581;42.416;25.598;2022-11-20T05:18:44;97904.47;;;16.00;100.00
9091;BME280;4581;42.416;25.598;2022-11-20T05:21:12;97902.63;;;15.94;100.00
9091;BME280;4581;42.416;25.598;2022-11-20T05:23:39;97901.06;;;16.05;100.00
9091;BME280;4581;42.416;25.598;2022-11-20T05:26:11;97901.97;;;16.17;100.00
9091;BME280;4581;42.416;25.598;2022-11-20T05:28:38;97914.81;;;16.28;100.00
9091;BME280;4581;42.416;25.598;2022-11-20T05:31:05;97912.94;;;16.28;100.00
9091;BME280;4581;42.416;25.598;2022-11-20T05:33:34;97909.81;;;16.25;100.00
9091;BME280;4581;42.416;25.598;2022-11-20T05:36:03;97909.00;;;16.24;100.00
9091;BME280;4581;42.416;25.598;2022-11-20T05:38:30;97905.88;;;16.21;100.00
9091;BME280;4581;42.416;25.598;2022-11-20T05:41:06;97922.81;;;16.23;100.00
9091;BME280;4581;42.416;25.598;2022-11-20T05:43:37;97912.53;;;16.25;100.00
9091;BME280;4581;42.416;25.598;2022-11-20T05:46:05;97923.28;;;16.56;100.00
9091;BME280;4581;42.416;25.598;2022-11-20T05:48:32;97929.50;;;16.63;100.00
9091;BME280;4581;42.416;25.598;2022-11-20T05:51:00;97919.81;;;16.67;100.00
9091;BME280;4581;42.416;25.598;2022-11-20T05:53:28;97921.75;;;16.78;100.00
9091;BME280;4581;42.416;25.598;2022-11-20T05:56:06;97923.41;;;16.79;100.00
9091;BME280;4581;42.416;25.598;2022-11-20T05:58:33;97916.78;;;16.75;100.00
9091;BME280;4581;42.416;25.598;2022-11-20T06:01:24;97922.22;;;16.75;100.00
9091;BME280;4581;42.416;25.598;2022-11-20T06:03:52;97933.94;;;16.76;100.00
9091;BME280;4581;42.416;25.598;2022-11-20T06:06:19;97939.38;;;16.76;100.00
9091;BME280;4581;42.416;25.598;2022-11-20T06:08:47;97938.56;;;16.75;100.00
9091;BME280;4581;42.416;25.598;2022-11-20T06:11:14;97942.69;;;16.78;100.00
9091;BME280;4581;42.416;25.598;2022-11-20T06:13:42;97951.38;;;16.87;100.00
9091;BME280;4581;42.416;25.598;2022-11-20T06:16:10;97938.81;;;16.85;100.00
9091;BME280;4581;42.416;25.598;2022-11-20T06:18:37;97953.84;;;16.76;100.00
9091;BME280;4581;42.416;25.598;2022-11-20T06:21:30;97938.09;;;16.78;100.00
9091;BME280;4581;42.416;25.598;2022-11-20T06:23:57;97937.97;;;16.85;100.00
9091;BME280;4581;42.416;25.598;2022-11-20T06:26:26;97934.56;;;16.90;100.00
9091;BME280;4581;42.416;25.598;2022-11-20T06:28:53;97945.66;;;16.76;100.00
9091;BME280;4581;42.416;25.598;2022-11-20T06:31:25;97962.31;;;16.68;100.00
9091;BME280;4581;42.416;25.598;2022-11-20T06:33:52;97967.06;;;16.73;100.00
9091;BME280;4581;42.416;25.598;2022-11-20T06:36:22;97965.03;;;16.68;100.00
9091;BME280;4581;42.416;25.598;2022-11-20T06:38:49;97961.94;;;16.65;100.00
9091;BME280;4581;42.416;25.598;2022-11-20T06:41:18;97966.97;;;16.61;100.00
9091;BME280;4581;42.416;25.598;2022-11-20T06:43:46;97975.59;;;16.58;100.00
9091;BME280;4581;42.416;25.598;2022-11-20T06:46:13;97972.69;;;16.53;100.00
9091;BME280;4581;42.416;25.598;2022-11-20T06:48:40;97983.00;;;16.51;100.00
9091;BME280;4581;42.416;25.598;2022-11-20T06:51:07;97974.66;;;16.46;100.00
9091;BME280;4581;42.416;25.598;2022-11-20T06:53:35;97972.81;;;16.65;100.00
9091;BME280;4581;42.416;25.598;2022-11-20T06:56:02;97975.91;;;16.68;100.00
9091;BME280;4581;42.416;25.598;2022-11-20T06:58:31;97975.91;;;16.68;100.00
9091;BME280;4581;42.416;25.598;2022-11-20T07:01:32;97984.75;;;16.82;100.00
9091;BME280;4581;42.416;25.598;2022-11-20T07:03:52;97989.03;;;16.90;100.00
9091;BME280;4581;42.416;25.598;2022-11-20T07:06:20;97987.66;;;16.99;100.00
9091;BME280;4581;42.416;25.598;2022-11-20T07:08:46;97984.41;;;17.08;100.00
9091;BME280;4581;42.416;25.598;2022-11-20T07:11:13;97988.00;;;17.20;100.00
9091;BME280;4581;42.416;25.598;2022-11-20T07:13:40;97991.00;;;17.30;100.00
9091;BME280;4581;42.416;25.598;2022-11-20T07:16:07;97986.91;;;17.40;100.00
9091;BME280;4581;42.416;25.598;2022-11-20T07:18:35;97991.19;;;17.47;100.00
9091;BME280;4581;42.416;25.598;2022-11-20T07:21:03;97993.78;;;17.54;100.00
9091;BME280;4581;42.416;25.598;2022-11-20T07:23:30;97987.59;;;17.65;100.00
9091;BME280;4581;42.416;25.598;2022-11-20T07:25:57;97978.94;;;17.68;100.00
9091;BME280;4581;42.416;25.598;2022-11-20T07:28:24;97970.66;;;17.74;100.00
9091;BME280;4581;42.416;25.598;2022-11-20T07:30:51;97971.63;;;17.80;99.29
9091;BME280;4581;42.416;25.598;2022-11-20T07:33:19;97980.97;;;17.84;99.49
9091;BME280;4581;42.416;25.598;2022-11-20T07:35:46;97975.63;;;17.77;99.21
9091;BME280;4581;42.416;25.598;2022-11-20T07:38:12;97975.63;;;17.77;99.89
9091;BME280;4581;42.416;25.598;2022-11-20T07:40:39;97981.22;;;17.83;99.96
9091;BME280;4581;42.416;25.598;2022-11-20T07:43:06;97980.72;;;17.86;99.27
9091;BME280;4581;42.416;25.598;2022-11-20T07:45:32;97981.91;;;17.90;98.80
9091;BME280;4581;42.416;25.598;2022-11-20T07:47:59;97980.63;;;17.92;97.82
9091;BME280;4581;42.416;25.598;2022-11-20T07:50:26;97990.84;;;17.97;98.08
9091;BME280;4581;42.416;25.598;2022-11-20T07:53:00;97976.94;;;17.98;98.03
9091;BME280;4581;42.416;25.598;2022-11-20T07:55:27;97988.22;;;18.02;97.99
9091;BME280;4581;42.416;25.598;2022-11-20T07:57:56;97976.94;;;18.10;97.54
9091;BME280;4581;42.416;25.598;2022-11-20T08:00:24;97973.28;;;18.16;97.18
9091;BME280;4581;42.416;25.598;2022-11-20T08:02:51;97988.69;;;18.22;96.66
9091;BME280;4581;42.416;25.598;2022-11-20T08:05:17;97983.38;;;18.27;97.04
9091;BME280;4581;42.416;25.598;2022-11-20T08:07:44;97992.75;;;18.31;96.99
9091;BME280;4581;42.416;25.598;2022-11-20T08:10:13;97986.56;;;18.36;96.58
9091;BME280;4581;42.416;25.598;2022-11-20T08:12:48;98002.47;;;18.39;94.83
9091;BME280;4581;42.416;25.598;2022-11-20T08:15:34;98000.56;;;18.39;94.57
9091;BME280;4581;42.416;25.598;2022-11-20T08:18:03;97987.28;;;18.43;94.78
9091;BME280;4581;42.416;25.598;2022-11-20T08:20:50;97986.44;;;18.54;95.13
9091;BME280;4581;42.416;25.598;2022-11-20T08:23:17;97993.69;;;18.60;94.67
9091;BME280;4581;42.416;25.598;2022-11-20T08:25:48;97990.97;;;18.60;94.36
9091;BME280;4581;42.416;25.598;2022-11-20T08:28:15;97989.63;;;18.74;94.23
9091;BME280;4581;42.416;25.598;2022-11-20T08:30:47;97997.22;;;18.84;93.40
9091;BME280;4581;42.416;25.598;2022-11-20T08:33:14;98003.16;;;18.81;93.25
9091;BME280;4581;42.416;25.598;2022-11-20T08:35:40;97988.91;;;18.79;93.92
9091;BME280;4581;42.416;25.598;2022-11-20T08:38:08;97975.38;;;18.84;93.32
9091;BME280;4581;42.416;25.598;2022-11-20T08:40:36;97990.09;;;18.83;92.25
9091;BME280;4581;42.416;25.598;2022-11-20T08:43:03;97988.41;;;18.82;92.11
9091;BME280;4581;42.416;25.598;2022-11-20T08:45:30;97998.75;;;18.91;92.32
9091;BME280;4581;42.416;25.598;2022-11-20T08:48:01;97992.44;;;18.91;90.82
9091;BME280;4581;42.416;25.598;2022-11-20T08:50:29;97993.97;;;18.98;90.70
9091;BME280;4581;42.416;25.598;2022-11-20T08:53:05;97982.69;;;18.95;89.58
9091;BME280;4581;42.416;25.598;2022-11-20T08:55:32;97981.72;;;19.01;88.86
9091;BME280;4581;42.416;25.598;2022-11-20T08:58:03;97977.09;;;19.01;89.81
9091;BME280;4581;42.416;25.598;2022-11-20T09:00:30;97968.91;;;19.01;90.40
9091;BME280;4581;42.416;25.598;2022-11-20T09:02:56;97946.09;;;18.96;90.14
9091;BME280;4581;42.416;25.598;2022-11-20T09:05:24;97951.41;;;19.02;90.56
9091;BME280;4581;42.416;25.598;2022-11-20T09:07:51;97935.84;;;19.03;89.60
9091;BME280;4581;42.416;25.598;2022-11-20T09:10:18;97955.38;;;18.95;90.80
9091;BME280;4581;42.416;25.598;2022-11-20T09:12:50;97950.16;;;18.93;90.17
9091;BME280;4581;42.416;25.598;2022-11-20T09:15:19;97955.03;;;18.91;89.50
9091;BME280;4581;42.416;25.598;2022-11-20T09:20:19;97939.97;;;18.89;90.81
9091;BME280;4581;42.416;25.598;2022-11-20T09:22:46;97943.19;;;18.74;91.60
9091;BME280;4581;42.416;25.598;2022-11-20T09:25:12;97940.22;;;18.76;91.26
9091;BME280;4581;42.416;25.598;2022-11-20T09:27:39;97947.94;;;18.79;90.50
9091;BME280;4581;42.416;25.598;2022-11-20T09:30:08;97931.31;;;18.80;91.34
9091;BME280;4581;42.416;25.598;2022-11-20T09:32:35;97922.53;;;18.78;91.54
9091;BME280;4581;42.416;25.598;2022-11-20T09:35:02;97928.81;;;18.79;92.10
9091;BME280;4581;42.416;25.598;2022-11-20T09:37:28;97921.41;;;18.91;91.22
9091;BME280;4581;42.416;25.598;2022-11-20T09:39:55;97917.63;;;18.92;91.00
9091;BME280;4581;42.416;25.598;2022-11-20T09:45:18;97920.13;;;19.10;88.63
9091;BME280;4581;42.416;25.598;2022-11-20T09:48:13;97911.53;;;19.18;89.43
9091;BME280;4581;42.416;25.598;2022-11-20T09:54:17;97898.63;;;19.58;88.30
9091;BME280;4581;42.416;25.598;2022-11-20T09:56:48;97903.75;;;19.72;86.36
9091;BME280;4581;42.416;25.598;2022-11-20T10:01:49;97896.06;;;19.85;85.54
9091;BME280;4581;42.416;25.598;2022-11-20T10:04:18;97893.03;;;19.87;85.82
9091;BME280;4581;42.416;25.598;2022-11-20T10:09:55;97893.19;;;20.14;84.53
9091;BME280;4581;42.416;25.598;2022-11-20T10:15:10;97887.81;;;20.40;84.19
9091;BME280;4581;42.416;25.598;2022-11-20T10:17:51;97883.44;;;20.23;84.88
9091;BME280;4581;42.416;25.598;2022-11-20T10:20:32;97888.06;;;20.39;84.55
9091;BME280;4581;42.416;25.598;2022-11-20T10:29:01;97879.94;;;20.27;84.21
9091;BME280;4581;42.416;25.598;2022-11-20T10:31:36;97873.94;;;20.08;85.43
9091;BME280;4581;42.416;25.598;2022-11-20T10:34:25;97871.09;;;19.82;86.24
9091;BME280;4581;42.416;25.598;2022-11-20T10:37:08;97872.91;;;19.76;85.93
9091;BME280;4581;42.416;25.598;2022-11-20T10:39:49;97874.19;;;19.69;85.80
9091;BME280;4581;42.416;25.598;2022-11-20T10:42:26;97864.06;;;19.52;86.39
9091;BME280;4581;42.416;25.598;2022-11-20T10:50:37;97852.34;;;19.40;86.89
9091;BME280;4581;42.416;25.598;2022-11-20T10:56:05;97845.72;;;19.36;86.52
9091;BME280;4581;42.416;25.598;2022-11-20T11:01:18;97838.34;;;19.37;87.36
9091;BME280;4581;42.416;25.598;2022-11-20T11:03:46;97835.13;;;19.40;86.52
9091;BME280;4581;42.416;25.598;2022-11-20T11:06:19;97834.41;;;19.44;86.68
9091;BME280;4581;42.416;25.598;2022-11-20T11:08:49;97834.88;;;19.58;85.58
9091;BME280;4581;42.416;25.598;2022-11-20T11:11:21;97835.22;;;19.61;85.47
9091;BME280;4581;42.416;25.598;2022-11-20T11:13:50;97831.41;;;19.62;84.88
9091;BME280;4581;42.416;25.598;2022-11-20T11:16:25;97840.19;;;19.65;84.88
9091;BME280;4581;42.416;25.598;2022-11-20T11:19:06;97836.13;;;19.67;84.61
9091;BME280;4581;42.416;25.598;2022-11-20T11:21:34;97841.78;;;19.60;84.05
9091;BME280;4581;42.416;25.598;2022-11-20T11:24:03;97838.03;;;19.67;83.82
9091;BME280;4581;42.416;25.598;2022-11-20T11:26:57;97831.47;;;19.68;81.52
9091;BME280;4581;42.416;25.598;2022-11-20T11:29:25;97832.22;;;19.80;80.83
9091;BME280;4581;42.416;25.598;2022-11-20T11:32:22;97826.81;;;19.85;81.52
9091;BME280;4581;42.416;25.598;2022-11-20T11:35:03;97806.50;;;19.81;80.70
9091;BME280;4581;42.416;25.598;2022-11-20T11:37:35;97812.13;;;19.91;80.14
9091;BME280;4581;42.416;25.598;2022-11-20T11:40:04;97805.56;;;19.92;80.08
9091;BME280;4581;42.416;25.598;2022-11-20T11:42:54;97795.03;;;20.00;79.54
9091;BME280;4581;42.416;25.598;2022-11-20T11:45:23;97792.09;;;19.85;80.12
9091;BME280;4581;42.416;25.598;2022-11-20T11:47:51;97785.47;;;19.81;80.22
9091;BME280;4581;42.416;25.598;2022-11-20T11:52:59;97761.44;;;19.67;81.63
9091;BME280;4581;42.416;25.598;2022-11-20T11:55:47;97783.47;;;19.77;80.82
9091;BME280;4581;42.416;25.598;2022-11-20T12:06:43;97785.94;;;19.78;81.15
9091;BME280;4581;42.416;25.598;2022-11-20T12:09:12;97779.00;;;19.71;81.08
9091;BME280;4581;42.416;25.598;2022-11-20T12:11:45;97786.78;;;19.79;80.59
9091;BME280;4581;42.416;25.598;2022-11-20T12:14:36;97782.97;;;19.80;81.04
9091;BME280;4581;42.416;25.598;2022-11-20T12:17:04;97784.97;;;19.68;81.28
9091;BME280;4581;42.416;25.598;2022-11-20T12:19:33;97787.97;;;19.66;81.33
9091;BME280;4581;42.416;25.598;2022-11-20T12:25:07;97776.66;;;19.57;81.27
9091;BME280;4581;42.416;25.598;2022-11-20T12:30:17;97786.00;;;19.61;81.68
9091;BME280;4581;42.416;25.598;2022-11-20T12:38:53;97778.16;;;19.70;80.77
9091;BME280;4581;42.416;25.598;2022-11-20T12:41:51;97784.00;;;19.74;80.50
9091;BME280;4581;42.416;25.598;2022-11-20T12:47:50;97782.50;;;19.66;82.46
9091;BME280;4581;42.416;25.598;2022-11-20T12:52:53;97768.34;;;19.69;83.06
9091;BME280;4581;42.416;25.598;2022-11-20T13:04:21;97773.22;;;19.67;82.54
9091;BME280;4581;42.416;25.598;2022-11-20T13:06:51;97774.63;;;19.70;82.79
9091;BME280;4581;42.416;25.598;2022-11-20T13:09:20;97769.41;;;19.68;82.72
9091;BME280;4581;42.416;25.598;2022-11-20T13:17:50;97763.06;;;19.84;81.57
9091;BME280;4581;42.416;25.598;2022-11-20T13:20:19;97765.16;;;19.77;80.60
9091;BME280;4581;42.416;25.598;2022-11-20T13:22:54;97773.59;;;19.76;78.65
9091;BME280;4581;42.416;25.598;2022-11-20T13:27:56;97771.38;;;19.73;77.44
9091;BME280;4581;42.416;25.598;2022-11-20T13:30:25;97769.22;;;19.75;76.94
9091;BME280;4581;42.416;25.598;2022-11-20T13:33:21;97780.00;;;19.81;77.96
9091;BME280;4581;42.416;25.598;2022-11-20T13:36:01;97780.34;;;19.68;77.16
9091;BME280;4581;42.416;25.598;2022-11-20T13:38:39;97775.88;;;19.62;77.54
9091;BME280;4581;42.416;25.598;2022-11-20T13:41:07;97770.91;;;19.59;77.61
9091;BME280;4581;42.416;25.598;2022-11-20T13:43:54;97774.78;;;19.63;78.10
9091;BME280;4581;42.416;25.598;2022-11-20T13:46:38;97771.66;;;19.54;78.96
9091;BME280;4581;42.416;25.598;2022-11-20T13:49:10;97762.91;;;19.52;79.03
9091;BME280;4581;42.416;25.598;2022-11-20T13:51:48;97772.50;;;19.55;78.45
9091;BME280;4581;42.416;25.598;2022-11-20T13:54:48;97766.78;;;19.56;79.03
9091;BME280;4581;42.416;25.598;2022-11-20T14:00:21;97754.19;;;19.55;79.67
9091;BME280;4581;42.416;25.598;2022-11-20T14:03:02;97754.69;;;19.52;79.10
9091;BME280;4581;42.416;25.598;2022-11-20T14:05:39;97766.19;;;19.54;79.41
9091;BME280;4581;42.416;25.598;2022-11-20T14:08:23;97758.50;;;19.51;79.18
9091;BME280;4581;42.416;25.598;2022-11-20T14:11:02;97762.25;;;19.45;79.67
9091;BME280;4581;42.416;25.598;2022-11-20T14:13:29;97766.28;;;19.43;79.94
9091;BME280;4581;42.416;25.598;2022-11-20T14:15:59;97754.53;;;19.42;79.47
9091;BME280;4581;42.416;25.598;2022-11-20T14:18:26;97760.00;;;19.42;80.15
9091;BME280;4581;42.416;25.598;2022-11-20T14:20:53;97771.19;;;19.24;80.36
9091;BME280;4581;42.416;25.598;2022-11-20T14:23:27;97765.84;;;19.34;79.80
9091;BME280;4581;42.416;25.598;2022-11-20T14:25:56;97765.94;;;19.39;79.44
9091;BME280;4581;42.416;25.598;2022-11-20T14:28:28;97758.34;;;19.25;80.25
9091;BME280;4581;42.416;25.598;2022-11-20T14:30:56;97753.72;;;19.25;81.23
9091;BME280;4581;42.416;25.598;2022-11-20T14:33:26;97747.41;;;19.25;80.86
9091;BME280;4581;42.416;25.598;2022-11-20T14:35:55;97752.78;;;19.20;80.05
9091;BME280;4581;42.416;25.598;2022-11-20T14:38:27;97756.75;;;19.29;79.33
9091;BME280;4581;42.416;25.598;2022-11-20T14:41:06;97751.53;;;19.27;79.43
9091;BME280;4581;42.416;25.598;2022-11-20T14:43:33;97767.44;;;19.30;79.43
9091;BME280;4581;42.416;25.598;2022-11-20T14:46:04;97763.31;;;19.28;80.13
9091;BME280;4581;42.416;25.598;2022-11-20T14:48:45;97760.66;;;19.16;81.08